sensor_id;sensor_type;location;lat;lon;timestamp;temperature;humidity
9193;DHT22;4631;49.296;10.560;2023-03-19T00:02:00;9.10;99.90
9193;DHT22;4631;49.296;10.560;2023-03-19T00:04:26;9.10;99.90
9193;DHT22;4631;49.296;10.560;2023-03-19T00:06:53;9.10;99.90
9193;DHT22;4631;49.296;10.560;2023-03-19T00:09:20;9.00;99.90
9193;DHT22;4631;49.296;10.560;2023-03-19T00:11:48;8.90;99.90
9193;DHT22;4631;49.296;10.560;2023-03-19T00:14:15;9.00;99.90
9193;DHT22;4631;49.296;10.560;2023-03-19T00:16:42;9.00;99.90
9193;DHT22;4631;49.296;10.560;2023-03-19T00:19:09;9.00;99.90
9193;DHT22;4631;49.296;10.560;2023-03-19T00:21:35;9.00;99.90
9193;DHT22;4631;49.296;10.560;2023-03-19T00:24:02;9.00;99.90
9193;DHT22;4631;49.296;10.560;2023-03-19T00:26:29;9.00;99.90
9193;DHT22;4631;49.296;10.560;2023-03-19T00:28:58;8.90;99.90
9193;DHT22;4631;49.296;10.560;2023-03-19T00:31:25;8.90;99.90
9193;DHT22;4631;49.296;10.560;2023-03-19T00:33:52;8.70;99.90
9193;DHT22;4631;49.296;10.560;2023-03-19T00:36:19;8.60;99.90
9193;DHT22;4631;49.296;10.560;2023-03-19T00:38:47;8.60;99.90
9193;DHT22;4631;49.296;10.560;2023-03-19T00:41:14;8.50;99.90
9193;DHT22;4631;49.296;10.560;2023-03-19T00:43:45;8.50;99.90
9193;DHT22;4631;49.296;10.560;2023-03-19T00:46:13;8.50;99.90
9193;DHT22;4631;49.296;10.560;2023-03-19T00:48:40;8.50;99.90
9193;DHT22;4631;49.296;10.560;2023-03-19T00:51:07;8.40;99.90
9193;DHT22;4631;49.296;10.560;2023-03-19T00:53:35;8.50;99.90
9193;DHT22;4631;49.296;10.560;2023-03-19T00:56:02;8.40;99.90
9193;DHT22;4631;49.296;10.560;2023-03-19T00:58:29;8.40;99.90
9193;DHT22;4631;49.296;10.560;2023-03-19T01:00:55;8.50;99.90
9193;DHT22;4631;49.296;10.560;2023-03-19T01:03:23;8.40;99.90
9193;DHT22;4631;49.296;10.560;2023-03-19T01:05:50;8.40;99.90
9193;DHT22;4631;49.296;10.560;2023-03-19T01:08:16;8.40;99.90
9193;DHT22;4631;49.296;10.560;2023-03-19T01:10:43;8.40;99.90
9193;DHT22;4631;49.296;10.560;2023-03-19T01:13:10;8.30;99.90
9193;DHT22;4631;49.296;10.560;2023-03-19T01:15:37;8.30;99.90
9193;DHT22;4631;49.296;10.560;2023-03-19T01:18:05;8.30;99.90
9193;DHT22;4631;49.296;10.560;2023-03-19T01:20:33;8.20;99.90
9193;DHT22;4631;49.296;10.560;2023-03-19T01:23:00;8.20;99.90
9193;DHT22;4631;49.296;10.560;2023-03-19T01:25:26;8.10;99.90
9193;DHT22;4631;49.296;10.560;2023-03-19T01:27:53;8.10;99.90
9193;DHT22;4631;49.296;10.560;2023-03-19T01:30:20;8.10;99.90
9193;DHT22;4631;49.296;10.560;2023-03-19T01:32:46;8.00;99.90
9193;DHT22;4631;49.296;10.560;2023-03-19T01:35:13;8.10;99.90
9193;DHT22;4631;49.296;10.560;2023-03-19T01:37:41;8.00;99.90
9193;DHT22;4631;49.296;10.560;2023-03-19T01:40:09;8.00;99.90
9193;DHT22;4631;49.296;10.560;2023-03-19T01:42:49;8.10;99.90
9193;DHT22;4631;49.296;10.560;2023-03-19T01:45:28;8.10;99.90
9193;DHT22;4631;49.296;10.560;2023-03-19T01:47:55;8.00;99.90
9193;DHT22;4631;49.296;10.560;2023-03-19T01:50:23;8.00;99.90
9193;DHT22;4631;49.296;10.560;2023-03-19T01:52:52;8.00;99.90
9193;DHT22;4631;49.296;10.560;2023-03-19T01:55:19;8.00;99.90
9193;DHT22;4631;49.296;10.560;2023-03-19T01:57:46;7.90;99.90
9193;DHT22;4631;49.296;10.560;2023-03-19T02:00:13;7.80;99.90
9193;DHT22;4631;49.296;10.560;2023-03-19T02:02:40;7.80;99.90
9193;DHT22;4631;49.296;10.560;2023-03-19T02:05:08;7.80;99.90
9193;DHT22;4631;49.296;10.560;2023-03-19T02:07:36;7.80;99.90
9193;DHT22;4631;49.296;10.560;2023-03-19T02:10:06;7.80;99.90
9193;DHT22;4631;49.296;10.560;2023-03-19T02:12:33;7.80;99.90
9193;DHT22;4631;49.296;10.560;2023-03-19T02:15:00;7.80;99.90
9193;DHT22;4631;49.296;10.560;2023-03-19T02:17:27;7.70;99.90
9193;DHT22;4631;49.296;10.560;2023-03-19T02:19:55;7.80;99.90
9193;DHT22;4631;49.296;10.560;2023-03-19T02:22:24;7.70;99.90
9193;DHT22;4631;49.296;10.560;2023-03-19T02:24:52;7.70;99.90
9193;DHT22;4631;49.296;10.560;2023-03-19T02:27:22;7.70;99.90
9193;DHT22;4631;49.296;10.560;2023-03-19T02:29:48;7.70;99.90
9193;DHT22;4631;49.296;10.560;2023-03-19T02:32:15;7.80;99.90
9193;DHT22;4631;49.296;10.560;2023-03-19T02:34:42;7.80;99.90
9193;DHT22;4631;49.296;10.560;2023-03-19T02:37:10;7.70;99.90
9193;DHT22;4631;49.296;10.560;2023-03-19T02:39:40;7.70;99.90
9193;DHT22;4631;49.296;10.560;2023-03-19T02:42:09;7.70;99.90
9193;DHT22;4631;49.296;10.560;2023-03-19T02:44:37;7.70;99.90
9193;DHT22;4631;49.296;10.560;2023-03-19T02:47:04;7.70;99.90
9193;DHT22;4631;49.296;10.560;2023-03-19T02:49:31;7.70;99.90
9193;DHT22;4631;49.296;10.560;2023-03-19T02:51:57;7.70;99.90
9193;DHT22;4631;49.296;10.560;2023-03-19T02:54:25;7.70;99.90
9193;DHT22;4631;49.296;10.560;2023-03-19T02:56:51;7.70;99.90
9193;DHT22;4631;49.296;10.560;2023-03-19T02:59:18;7.70;99.90
9193;DHT22;4631;49.296;10.560;2023-03-19T03:01:46;7.60;99.90
9193;DHT22;4631;49.296;10.560;2023-03-19T03:04:19;7.60;99.90
9193;DHT22;4631;49.296;10.560;2023-03-19T03:06:46;7.50;99.90
9193;DHT22;4631;49.296;10.560;2023-03-19T03:09:13;7.50;99.90
9193;DHT22;4631;49.296;10.560;2023-03-19T03:11:40;7.50;99.90
9193;DHT22;4631;49.296;10.560;2023-03-19T03:14:06;7.50;99.90
9193;DHT22;4631;49.296;10.560;2023-03-19T03:16:33;7.50;99.90
9193;DHT22;4631;49.296;10.560;2023-03-19T03:19:01;7.50;99.90
9193;DHT22;4631;49.296;10.560;2023-03-19T03:21:27;7.50;99.90
9193;DHT22;4631;49.296;10.560;2023-03-19T03:23:54;7.50;99.90
9193;DHT22;4631;49.296;10.560;2023-03-19T03:26:21;7.50;99.90
9193;DHT22;4631;49.296;10.560;2023-03-19T03:28:48;7.50;99.90
9193;DHT22;4631;49.296;10.560;2023-03-19T03:31:15;7.40;99.90
9193;DHT22;4631;49.296;10.560;2023-03-19T03:33:41;7.50;99.90
9193;DHT22;4631;49.296;10.560;2023-03-19T03:36:10;7.50;99.90
9193;DHT22;4631;49.296;10.560;2023-03-19T03:38:36;7.50;99.90
9193;DHT22;4631;49.296;10.560;2023-03-19T03:41:04;7.50;99.90
9193;DHT22;4631;49.296;10.560;2023-03-19T03:43:31;7.50;99.90
9193;DHT22;4631;49.296;10.560;2023-03-19T03:45:58;7.50;99.90
9193;DHT22;4631;49.296;10.560;2023-03-19T03:48:24;7.60;99.90
9193;DHT22;4631;49.296;10.560;2023-03-19T03:50:51;7.60;99.90
9193;DHT22;4631;49.296;10.560;2023-03-19T03:53:19;7.60;99.90
9193;DHT22;4631;49.296;10.560;2023-03-19T03:55:46;7.60;99.90
9193;DHT22;4631;49.296;10.560;2023-03-19T03:58:13;7.60;99.90
9193;DHT22;4631;49.296;10.560;2023-03-19T04:00:41;7.60;99.90
9193;DHT22;4631;49.296;10.560;2023-03-19T04:03:07;7.60;99.90
9193;DHT22;4631;49.296;10.560;2023-03-19T04:05:34;7.60;99.90
9193;DHT22;4631;49.296;10.560;2023-03-19T04:08:02;7.60;99.90
9193;DHT22;4631;49.296;10.560;2023-03-19T04:10:30;7.60;99.90
9193;DHT22;4631;49.296;10.560;2023-03-19T04:12:57;7.60;99.90
9193;DHT22;4631;49.296;10.560;2023-03-19T04:15:24;7.60;99.90
9193;DHT22;4631;49.296;10.560;2023-03-19T04:17:50;7.50;99.90
9193;DHT22;4631;49.296;10.560;2023-03-19T04:20:17;7.60;99.90
9193;DHT22;4631;49.296;10.560;2023-03-19T04:22:44;7.60;99.90
9193;DHT22;4631;49.296;10.560;2023-03-19T04:25:10;7.60;99.90
9193;DHT22;4631;49.296;10.560;2023-03-19T04:27:38;7.60;99.90
9193;DHT22;4631;49.296;10.560;2023-03-19T04:30:05;7.60;99.90
9193;DHT22;4631;49.296;10.560;2023-03-19T04:32:32;7.60;99.90
9193;DHT22;4631;49.296;10.560;2023-03-19T04:34:59;7.60;99.90
9193;DHT22;4631;49.296;10.560;2023-03-19T04:37:26;7.60;99.90
9193;DHT22;4631;49.296;10.560;2023-03-19T04:39:52;7.60;99.90
9193;DHT22;4631;49.296;10.560;2023-03-19T04:42:19;7.60;99.90
9193;DHT22;4631;49.296;10.560;2023-03-19T04:44:47;7.60;99.90
9193;DHT22;4631;49.296;10.560;2023-03-19T04:47:14;7.70;99.90
9193;DHT22;4631;49.296;10.560;2023-03-19T04:49:41;7.70;99.90
9193;DHT22;4631;49.296;10.560;2023-03-19T04:52:07;7.90;99.90
9193;DHT22;4631;49.296;10.560;2023-03-19T04:54:40;8.00;99.90
9193;DHT22;4631;49.296;10.560;2023-03-19T04:57:07;7.90;99.90
9193;DHT22;4631;49.296;10.560;2023-03-19T04:59:34;7.90;99.90
9193;DHT22;4631;49.296;10.560;2023-03-19T05:02:02;7.90;99.90
9193;DHT22;4631;49.296;10.560;2023-03-19T05:04:37;7.90;99.90
9193;DHT22;4631;49.296;10.560;2023-03-19T05:07:04;7.80;99.90
9193;DHT22;4631;49.296;10.560;2023-03-19T05:09:31;7.90;99.90
9193;DHT22;4631;49.296;10.560;2023-03-19T05:11:58;7.80;99.90
9193;DHT22;4631;49.296;10.560;2023-03-19T05:14:25;7.90;99.90
9193;DHT22;4631;49.296;10.560;2023-03-19T05:16:51;7.90;99.90
9193;DHT22;4631;49.296;10.560;2023-03-19T05:19:19;8.00;99.90
9193;DHT22;4631;49.296;10.560;2023-03-19T05:21:46;8.00;99.90
9193;DHT22;4631;49.296;10.560;2023-03-19T05:24:13;8.10;99.90
9193;DHT22;4631;49.296;10.560;2023-03-19T05:26:40;8.20;99.90
9193;DHT22;4631;49.296;10.560;2023-03-19T05:29:06;8.30;99.90
9193;DHT22;4631;49.296;10.560;2023-03-19T05:31:35;8.30;99.90
9193;DHT22;4631;49.296;10.560;2023-03-19T05:34:04;8.40;99.90
9193;DHT22;4631;49.296;10.560;2023-03-19T05:36:32;8.40;99.90
9193;DHT22;4631;49.296;10.560;2023-03-19T05:38:59;8.50;99.90
9193;DHT22;4631;49.296;10.560;2023-03-19T05:41:26;8.50;99.90
9193;DHT22;4631;49.296;10.560;2023-03-19T05:43:52;8.50;99.90
9193;DHT22;4631;49.296;10.560;2023-03-19T05:46:19;8.40;99.90
9193;DHT22;4631;49.296;10.560;2023-03-19T05:48:46;8.40;99.90
9193;DHT22;4631;49.296;10.560;2023-03-19T05:51:13;8.40;99.90
9193;DHT22;4631;49.296;10.560;2023-03-19T05:53:41;8.50;99.90
9193;DHT22;4631;49.296;10.560;2023-03-19T05:56:07;8.40;99.90
9193;DHT22;4631;49.296;10.560;2023-03-19T05:58:38;8.40;99.90
9193;DHT22;4631;49.296;10.560;2023-03-19T06:01:05;8.40;99.90
9193;DHT22;4631;49.296;10.560;2023-03-19T06:03:31;8.40;99.90
9193;DHT22;4631;49.296;10.560;2023-03-19T06:05:59;8.40;99.90
9193;DHT22;4631;49.296;10.560;2023-03-19T06:08:25;8.40;99.90
9193;DHT22;4631;49.296;10.560;2023-03-19T06:10:53;8.50;99.90
9193;DHT22;4631;49.296;10.560;2023-03-19T06:13:20;8.50;99.90
9193;DHT22;4631;49.296;10.560;2023-03-19T06:15:47;8.50;99.90
9193;DHT22;4631;49.296;10.560;2023-03-19T06:18:14;8.50;99.90
9193;DHT22;4631;49.296;10.560;2023-03-19T06:20:40;8.50;99.90
9193;DHT22;4631;49.296;10.560;2023-03-19T06:23:07;8.50;99.90
9193;DHT22;4631;49.296;10.560;2023-03-19T06:25:34;8.60;99.90
9193;DHT22;4631;49.296;10.560;2023-03-19T06:28:03;8.60;99.90
9193;DHT22;4631;49.296;10.560;2023-03-19T06:30:29;8.60;99.90
9193;DHT22;4631;49.296;10.560;2023-03-19T06:32:56;8.60;99.90
9193;DHT22;4631;49.296;10.560;2023-03-19T06:35:23;8.70;99.90
9193;DHT22;4631;49.296;10.560;2023-03-19T06:37:49;8.80;99.90
9193;DHT22;4631;49.296;10.560;2023-03-19T06:40:17;8.90;99.90
9193;DHT22;4631;49.296;10.560;2023-03-19T06:42:43;8.80;99.90
9193;DHT22;4631;49.296;10.560;2023-03-19T06:45:12;8.90;99.90
9193;DHT22;4631;49.296;10.560;2023-03-19T06:47:40;8.90;99.90
9193;DHT22;4631;49.296;10.560;2023-03-19T06:52:38;8.80;99.90
9193;DHT22;4631;49.296;10.560;2023-03-19T06:55:07;8.80;99.90
9193;DHT22;4631;49.296;10.560;2023-03-19T06:57:35;8.80;99.90
9193;DHT22;4631;49.296;10.560;2023-03-19T07:00:02;8.70;99.90
9193;DHT22;4631;49.296;10.560;2023-03-19T07:02:31;8.70;99.90
9193;DHT22;4631;49.296;10.560;2023-03-19T07:05:00;8.70;99.90
9193;DHT22;4631;49.296;10.560;2023-03-19T07:07:28;8.70;99.90
9193;DHT22;4631;49.296;10.560;2023-03-19T07:09:55;8.70;99.90
9193;DHT22;4631;49.296;10.560;2023-03-19T07:12:22;8.70;99.90
9193;DHT22;4631;49.296;10.560;2023-03-19T07:14:52;8.70;99.90
9193;DHT22;4631;49.296;10.560;2023-03-19T07:19:51;8.70;99.90
9193;DHT22;4631;49.296;10.560;2023-03-19T07:22:18;8.70;99.90
9193;DHT22;4631;49.296;10.560;2023-03-19T07:24:46;8.70;99.90
9193;DHT22;4631;49.296;10.560;2023-03-19T07:27:12;8.70;99.90
9193;DHT22;4631;49.296;10.560;2023-03-19T07:29:39;8.70;99.90
9193;DHT22;4631;49.296;10.560;2023-03-19T07:32:06;8.70;99.90
9193;DHT22;4631;49.296;10.560;2023-03-19T07:34:32;8.70;99.90
9193;DHT22;4631;49.296;10.560;2023-03-19T07:37:01;8.70;99.90
9193;DHT22;4631;49.296;10.560;2023-03-19T07:39:27;8.70;99.90
9193;DHT22;4631;49.296;10.560;2023-03-19T07:41:54;8.80;99.90
9193;DHT22;4631;49.296;10.560;2023-03-19T07:44:21;8.80;99.90
9193;DHT22;4631;49.296;10.560;2023-03-19T07:46:47;8.70;99.90
9193;DHT22;4631;49.296;10.560;2023-03-19T07:49:14;8.70;99.90
9193;DHT22;4631;49.296;10.560;2023-03-19T07:51:41;8.70;99.90
9193;DHT22;4631;49.296;10.560;2023-03-19T07:54:09;8.70;99.90
9193;DHT22;4631;49.296;10.560;2023-03-19T07:56:35;8.70;99.90
9193;DHT22;4631;49.296;10.560;2023-03-19T07:59:02;8.70;99.90
9193;DHT22;4631;49.296;10.560;2023-03-19T08:01:29;8.70;99.90
9193;DHT22;4631;49.296;10.560;2023-03-19T08:03:55;8.70;99.90
9193;DHT22;4631;49.296;10.560;2023-03-19T08:06:22;8.70;99.90
9193;DHT22;4631;49.296;10.560;2023-03-19T08:08:49;8.70;99.90
9193;DHT22;4631;49.296;10.560;2023-03-19T08:11:17;8.70;99.90
9193;DHT22;4631;49.296;10.560;2023-03-19T08:13:44;8.70;99.90
9193;DHT22;4631;49.296;10.560;2023-03-19T08:16:11;8.70;99.90
9193;DHT22;4631;49.296;10.560;2023-03-19T08:18:38;8.70;99.90
9193;DHT22;4631;49.296;10.560;2023-03-19T08:21:05;8.70;99.90
9193;DHT22;4631;49.296;10.560;2023-03-19T08:23:31;8.80;99.90
9193;DHT22;4631;49.296;10.560;2023-03-19T08:25:59;8.80;99.90
9193;DHT22;4631;49.296;10.560;2023-03-19T08:28:27;8.80;99.90
9193;DHT22;4631;49.296;10.560;2023-03-19T08:30:54;8.80;99.90
9193;DHT22;4631;49.296;10.560;2023-03-19T08:33:21;8.90;99.90
9193;DHT22;4631;49.296;10.560;2023-03-19T08:35:47;8.90;99.90
9193;DHT22;4631;49.296;10.560;2023-03-19T08:38:14;8.90;99.90
9193;DHT22;4631;49.296;10.560;2023-03-19T08:40:41;8.90;99.90
9193;DHT22;4631;49.296;10.560;2023-03-19T08:43:08;8.90;99.90
9193;DHT22;4631;49.296;10.560;2023-03-19T08:45:38;9.00;99.90
9193;DHT22;4631;49.296;10.560;2023-03-19T08:48:04;9.00;99.90
9193;DHT22;4631;49.296;10.560;2023-03-19T08:50:31;9.10;99.90
9193;DHT22;4631;49.296;10.560;2023-03-19T08:52:58;9.10;99.90
9193;DHT22;4631;49.296;10.560;2023-03-19T08:55:24;9.10;99.90
9193;DHT22;4631;49.296;10.560;2023-03-19T08:57:51;9.10;99.90
9193;DHT22;4631;49.296;10.560;2023-03-19T09:00:18;9.10;99.90
9193;DHT22;4631;49.296;10.560;2023-03-19T09:02:48;9.20;99.90
9193;DHT22;4631;49.296;10.560;2023-03-19T09:05:14;9.30;99.90
9193;DHT22;4631;49.296;10.560;2023-03-19T09:07:44;9.30;99.90
9193;DHT22;4631;49.296;10.560;2023-03-19T09:10:11;9.30;99.90
9193;DHT22;4631;49.296;10.560;2023-03-19T09:12:37;9.40;99.90
9193;DHT22;4631;49.296;10.560;2023-03-19T09:15:05;9.40;99.90
9193;DHT22;4631;49.296;10.560;2023-03-19T09:17:31;9.40;99.90
9193;DHT22;4631;49.296;10.560;2023-03-19T09:19:59;9.40;99.90
9193;DHT22;4631;49.296;10.560;2023-03-19T09:22:26;9.40;99.90
9193;DHT22;4631;49.296;10.560;2023-03-19T09:24:53;9.40;99.90
9193;DHT22;4631;49.296;10.560;2023-03-19T09:27:19;9.40;99.90
9193;DHT22;4631;49.296;10.560;2023-03-19T09:29:47;9.50;99.90
9193;DHT22;4631;49.296;10.560;2023-03-19T09:32:15;9.50;99.90
9193;DHT22;4631;49.296;10.560;2023-03-19T09:34:41;9.60;99.90
9193;DHT22;4631;49.296;10.560;2023-03-19T09:37:09;9.60;99.90
9193;DHT22;4631;49.296;10.560;2023-03-19T09:39:36;9.70;99.90
9193;DHT22;4631;49.296;10.560;2023-03-19T09:42:07;9.80;99.90
9193;DHT22;4631;49.296;10.560;2023-03-19T09:44:36;9.80;99.90
9193;DHT22;4631;49.296;10.560;2023-03-19T09:47:07;9.90;99.90
9193;DHT22;4631;49.296;10.560;2023-03-19T09:49:38;9.90;99.90
9193;DHT22;4631;49.296;10.560;2023-03-19T09:52:13;10.00;99.90
9193;DHT22;4631;49.296;10.560;2023-03-19T09:54:45;10.10;99.90
9193;DHT22;4631;49.296;10.560;2023-03-19T09:57:12;10.20;99.90
9193;DHT22;4631;49.296;10.560;2023-03-19T09:59:39;10.20;99.90
9193;DHT22;4631;49.296;10.560;2023-03-19T10:04:53;10.30;99.90
9193;DHT22;4631;49.296;10.560;2023-03-19T10:07:29;10.30;99.90
9193;DHT22;4631;49.296;10.560;2023-03-19T10:10:02;10.40;99.90
9193;DHT22;4631;49.296;10.560;2023-03-19T10:12:38;10.40;99.90
9193;DHT22;4631;49.296;10.560;2023-03-19T10:15:13;10.40;99.90
9193;DHT22;4631;49.296;10.560;2023-03-19T10:17:41;10.60;99.90
9193;DHT22;4631;49.296;10.560;2023-03-19T10:20:14;10.60;99.90
9193;DHT22;4631;49.296;10.560;2023-03-19T10:22:44;10.70;99.90
9193;DHT22;4631;49.296;10.560;2023-03-19T10:25:14;10.70;99.90
9193;DHT22;4631;49.296;10.560;2023-03-19T10:27:44;10.90;99.90
9193;DHT22;4631;49.296;10.560;2023-03-19T10:30:12;10.90;99.90
9193;DHT22;4631;49.296;10.560;2023-03-19T10:32:40;10.90;99.90
9193;DHT22;4631;49.296;10.560;2023-03-19T10:35:08;11.00;99.90
9193;DHT22;4631;49.296;10.560;2023-03-19T10:37:38;11.00;99.90
9193;DHT22;4631;49.296;10.560;2023-03-19T10:40:10;11.20;99.90
9193;DHT22;4631;49.296;10.560;2023-03-19T10:42:43;11.30;99.90
9193;DHT22;4631;49.296;10.560;2023-03-19T10:45:17;11.40;99.90
9193;DHT22;4631;49.296;10.560;2023-03-19T10:47:45;11.50;99.90
9193;DHT22;4631;49.296;10.560;2023-03-19T10:50:14;11.60;99.90
9193;DHT22;4631;49.296;10.560;2023-03-19T10:52:41;11.70;99.90
9193;DHT22;4631;49.296;10.560;2023-03-19T10:55:13;11.90;99.90
9193;DHT22;4631;49.296;10.560;2023-03-19T10:57:41;12.10;99.90
9193;DHT22;4631;49.296;10.560;2023-03-19T11:00:14;12.30;99.90
9193;DHT22;4631;49.296;10.560;2023-03-19T11:02:44;12.50;99.90
9193;DHT22;4631;49.296;10.560;2023-03-19T11:05:18;12.70;99.90
9193;DHT22;4631;49.296;10.560;2023-03-19T11:07:47;12.90;99.90
9193;DHT22;4631;49.296;10.560;2023-03-19T11:10:16;13.10;99.90
9193;DHT22;4631;49.296;10.560;2023-03-19T11:12:45;13.20;99.90
9193;DHT22;4631;49.296;10.560;2023-03-19T11:15:15;13.40;99.90
9193;DHT22;4631;49.296;10.560;2023-03-19T11:17:44;13.60;99.90
9193;DHT22;4631;49.296;10.560;2023-03-19T11:20:18;13.60;99.90
9193;DHT22;4631;49.296;10.560;2023-03-19T11:22:44;13.60;99.90
9193;DHT22;4631;49.296;10.560;2023-03-19T11:25:13;13.60;99.90
9193;DHT22;4631;49.296;10.560;2023-03-19T11:27:44;13.60;99.90
9193;DHT22;4631;49.296;10.560;2023-03-19T11:30:22;13.70;99.90
9193;DHT22;4631;49.296;10.560;2023-03-19T11:32:58;13.80;99.90
9193;DHT22;4631;49.296;10.560;2023-03-19T11:35:27;14.00;99.90
9193;DHT22;4631;49.296;10.560;2023-03-19T11:37:56;14.30;99.90
9193;DHT22;4631;49.296;10.560;2023-03-19T11:40:30;14.50;99.90
9193;DHT22;4631;49.296;10.560;2023-03-19T11:43:07;14.70;99.90
9193;DHT22;4631;49.296;10.560;2023-03-19T11:45:39;14.90;99.90
9193;DHT22;4631;49.296;10.560;2023-03-19T11:48:17;15.10;99.90
9193;DHT22;4631;49.296;10.560;2023-03-19T11:50:48;15.20;99.90
9193;DHT22;4631;49.296;10.560;2023-03-19T11:53:18;15.40;99.90
9193;DHT22;4631;49.296;10.560;2023-03-19T11:55:47;15.60;99.90
9193;DHT22;4631;49.296;10.560;2023-03-19T11:58:28;15.50;99.90
9193;DHT22;4631;49.296;10.560;2023-03-19T12:01:01;15.30;99.90
9193;DHT22;4631;49.296;10.560;2023-03-19T12:03:36;15.40;99.90
9193;DHT22;4631;49.296;10.560;2023-03-19T12:06:16;15.40;99.90
9193;DHT22;4631;49.296;10.560;2023-03-19T12:08:47;15.60;99.90
9193;DHT22;4631;49.296;10.560;2023-03-19T12:11:16;15.70;99.90
9193;DHT22;4631;49.296;10.560;2023-03-19T12:13:48;15.80;99.90
9193;DHT22;4631;49.296;10.560;2023-03-19T12:16:19;16.00;99.90
9193;DHT22;4631;49.296;10.560;2023-03-19T12:21:39;16.50;99.90
9193;DHT22;4631;49.296;10.560;2023-03-19T12:24:11;16.60;99.90
9193;DHT22;4631;49.296;10.560;2023-03-19T12:26:45;16.80;99.90
9193;DHT22;4631;49.296;10.560;2023-03-19T12:29:17;17.00;99.90
9193;DHT22;4631;49.296;10.560;2023-03-19T12:31:53;17.20;99.90
9193;DHT22;4631;49.296;10.560;2023-03-19T12:34:24;17.40;99.90
9193;DHT22;4631;49.296;10.560;2023-03-19T12:36:56;17.40;99.90
9193;DHT22;4631;49.296;10.560;2023-03-19T12:39:28;17.30;99.90
9193;DHT22;4631;49.296;10.560;2023-03-19T12:41:56;17.00;99.90
9193;DHT22;4631;49.296;10.560;2023-03-19T12:44:27;16.90;99.90
9193;DHT22;4631;49.296;10.560;2023-03-19T12:46:55;16.70;99.90
9193;DHT22;4631;49.296;10.560;2023-03-19T12:49:24;16.80;99.90
9193;DHT22;4631;49.296;10.560;2023-03-19T12:51:52;16.80;99.90
9193;DHT22;4631;49.296;10.560;2023-03-19T12:54:22;16.70;99.90
9193;DHT22;4631;49.296;10.560;2023-03-19T12:56:50;16.90;99.90
9193;DHT22;4631;49.296;10.560;2023-03-19T12:59:21;17.30;99.90
9193;DHT22;4631;49.296;10.560;2023-03-19T13:01:52;17.50;99.90
9193;DHT22;4631;49.296;10.560;2023-03-19T13:04:23;17.60;99.90
9193;DHT22;4631;49.296;10.560;2023-03-19T13:06:53;17.70;99.90
9193;DHT22;4631;49.296;10.560;2023-03-19T13:09:24;17.60;99.90
9193;DHT22;4631;49.296;10.560;2023-03-19T13:11:54;17.10;99.90
9193;DHT22;4631;49.296;10.560;2023-03-19T13:14:24;16.90;99.90
9193;DHT22;4631;49.296;10.560;2023-03-19T13:16:54;16.80;99.90
9193;DHT22;4631;49.296;10.560;2023-03-19T13:19:24;16.80;99.90
9193;DHT22;4631;49.296;10.560;2023-03-19T13:21:54;16.80;99.90
9193;DHT22;4631;49.296;10.560;2023-03-19T13:24:23;16.80;99.90
9193;DHT22;4631;49.296;10.560;2023-03-19T13:26:50;16.50;99.90
9193;DHT22;4631;49.296;10.560;2023-03-19T13:29:19;16.20;99.90
9193;DHT22;4631;49.296;10.560;2023-03-19T13:31:46;16.10;99.90
9193;DHT22;4631;49.296;10.560;2023-03-19T13:34:27;16.00;99.90
9193;DHT22;4631;49.296;10.560;2023-03-19T13:36:57;16.00;99.90
9193;DHT22;4631;49.296;10.560;2023-03-19T13:39:26;16.00;99.90
9193;DHT22;4631;49.296;10.560;2023-03-19T13:42:08;16.00;99.90
9193;DHT22;4631;49.296;10.560;2023-03-19T13:44:38;16.20;99.90
9193;DHT22;4631;49.296;10.560;2023-03-19T13:50:11;16.30;99.90
9193;DHT22;4631;49.296;10.560;2023-03-19T13:52:46;16.30;99.90
9193;DHT22;4631;49.296;10.560;2023-03-19T13:55:31;16.40;99.90
9193;DHT22;4631;49.296;10.560;2023-03-19T13:58:04;16.50;99.90
9193;DHT22;4631;49.296;10.560;2023-03-19T14:00:56;16.60;99.90
9193;DHT22;4631;49.296;10.560;2023-03-19T14:03:23;16.60;99.90
9193;DHT22;4631;49.296;10.560;2023-03-19T14:05:52;16.40;99.90
9193;DHT22;4631;49.296;10.560;2023-03-19T14:08:21;16.50;99.90
9193;DHT22;4631;49.296;10.560;2023-03-19T14:10:49;16.60;99.90
9193;DHT22;4631;49.296;10.560;2023-03-19T14:13:18;16.60;99.90
9193;DHT22;4631;49.296;10.560;2023-03-19T14:15:47;16.90;99.90
9193;DHT22;4631;49.296;10.560;2023-03-19T14:18:15;17.30;99.90
9193;DHT22;4631;49.296;10.560;2023-03-19T14:20:44;17.50;99.90
9193;DHT22;4631;49.296;10.560;2023-03-19T14:23:20;17.80;99.90
9193;DHT22;4631;49.296;10.560;2023-03-19T14:26:08;18.00;99.90
9193;DHT22;4631;49.296;10.560;2023-03-19T14:28:37;18.10;99.90
9193;DHT22;4631;49.296;10.560;2023-03-19T14:31:12;18.40;99.90
9193;DHT22;4631;49.296;10.560;2023-03-19T14:33:44;18.50;99.90
9193;DHT22;4631;49.296;10.560;2023-03-19T14:36:14;18.50;99.90
9193;DHT22;4631;49.296;10.560;2023-03-19T14:38:45;18.30;99.90
9193;DHT22;4631;49.296;10.560;2023-03-19T14:41:14;18.20;99.90
9193;DHT22;4631;49.296;10.560;2023-03-19T14:43:47;18.30;99.90
9193;DHT22;4631;49.296;10.560;2023-03-19T14:46:18;18.00;99.90
9193;DHT22;4631;49.296;10.560;2023-03-19T14:49:14;17.80;99.90
9193;DHT22;4631;49.296;10.560;2023-03-19T14:52:00;17.70;99.90
9193;DHT22;4631;49.296;10.560;2023-03-19T14:54:40;17.50;99.90
9193;DHT22;4631;49.296;10.560;2023-03-19T14:57:14;17.40;99.90
9193;DHT22;4631;49.296;10.560;2023-03-19T14:59:41;17.40;99.90
9193;DHT22;4631;49.296;10.560;2023-03-19T15:02:16;17.30;99.90
9193;DHT22;4631;49.296;10.560;2023-03-19T15:04:44;17.30;99.90
9193;DHT22;4631;49.296;10.560;2023-03-19T15:07:16;17.50;99.90
9193;DHT22;4631;49.296;10.560;2023-03-19T15:09:45;17.60;99.90
9193;DHT22;4631;49.296;10.560;2023-03-19T15:12:22;17.60;99.90
9193;DHT22;4631;49.296;10.560;2023-03-19T15:17:50;17.50;99.90
9193;DHT22;4631;49.296;10.560;2023-03-19T15:20:19;17.40;99.90
9193;DHT22;4631;49.296;10.560;2023-03-19T15:22:52;17.10;99.90
9193;DHT22;4631;49.296;10.560;2023-03-19T15:25:20;16.70;99.90
9193;DHT22;4631;49.296;10.560;2023-03-19T15:28:02;16.60;99.90
9193;DHT22;4631;49.296;10.560;2023-03-19T15:30:29;16.50;99.90
9193;DHT22;4631;49.296;10.560;2023-03-19T15:32:56;16.30;99.90
9193;DHT22;4631;49.296;10.560;2023-03-19T15:35:23;16.20;99.90
9193;DHT22;4631;49.296;10.560;2023-03-19T15:37:51;16.10;99.90
9193;DHT22;4631;49.296;10.560;2023-03-19T15:40:19;16.10;99.90
9193;DHT22;4631;49.296;10.560;2023-03-19T15:42:47;16.00;99.90
9193;DHT22;4631;49.296;10.560;2023-03-19T15:45:15;16.00;99.90
9193;DHT22;4631;49.296;10.560;2023-03-19T15:47:44;15.90;99.90
9193;DHT22;4631;49.296;10.560;2023-03-19T15:50:13;15.90;99.90
9193;DHT22;4631;49.296;10.560;2023-03-19T15:52:42;15.90;99.90
9193;DHT22;4631;49.296;10.560;2023-03-19T15:55:10;15.80;99.90
9193;DHT22;4631;49.296;10.560;2023-03-19T15:57:38;15.80;99.90
9193;DHT22;4631;49.296;10.560;2023-03-19T16:00:08;15.70;99.90
9193;DHT22;4631;49.296;10.560;2023-03-19T16:02:37;15.70;99.90
9193;DHT22;4631;49.296;10.560;2023-03-19T16:05:05;15.60;99.90
9193;DHT22;4631;49.296;10.560;2023-03-19T16:07:34;15.60;99.90
9193;DHT22;4631;49.296;10.560;2023-03-19T16:12:47;15.40;99.90
9193;DHT22;4631;49.296;10.560;2023-03-19T16:15:26;15.40;99.90
9193;DHT22;4631;49.296;10.560;2023-03-19T16:17:55;15.30;99.90
9193;DHT22;4631;49.296;10.560;2023-03-19T16:20:21;15.30;99.90
9193;DHT22;4631;49.296;10.560;2023-03-19T16:22:50;15.20;99.90
9193;DHT22;4631;49.296;10.560;2023-03-19T16:25:18;15.20;99.90